CheckWX is a tool to help pilots better visualize weather data.  It is not intended as a substitute for an official pre-flight weather briefing.

18:29:53 UTC

KHRT METAR
Hurlburt Field Airport
Mary Esther, Florida, USA
Current

3 hours ago

KHRT 201557Z 00000KT 6SM -RA FEW003 SCT014 BKN033 25/23 A3009 RMK AO2A LWR VIS N RAB26 SLP191 P0018 T02520230 $
Observed
Aug-20 @ 15:57 UTC
Visibility
6 SM
Flight Rules
VFR
Conditions
Light Rain
Cloud Levels
  • Few at 300' AGL
  • Scattered at 1,400' AGL
  • Broken at 3,300' AGL
Temperature
25°C / 77°F
Dewpoint
23°C / 73°F
Humidity
89%
Altimeter
30.09" Hg
Pressure
1018.92 hPa
Current Rain
0.18"
Previous

3 hours ago

KHRT 201526Z 17010KT 6SM -SHRA BKN015 BKN140 28/24 A3008 RMK AO2A SLP188 $
Observed
Aug-20 @ 15:26 UTC
Wind
  • 170° at 10 KTS
Visibility
6 SM
Flight Rules
MVFR
Conditions
Light Rain
Cloud Levels
  • Broken at 1,500' AGL
  • Broken at 14,000' AGL
Temperature
28°C / 82°F
Dewpoint
24°C / 75°F
Heat Index
32°C / 89°F
Humidity
79%
Altimeter
30.08" Hg
Pressure
1018.62 hPa
Previous

4 hours ago

KHRT 201456Z 16006KT 10SM SCT017 BKN140 28/24 A3007 RMK AO2A SLP184 T02830238 50002 $
Observed
Aug-20 @ 14:56 UTC
Wind
  • 160° at 6 KTS
Visibility
10 SM
Flight Rules
VFR
Cloud Levels
  • Scattered at 1,700' AGL
  • Broken at 14,000' AGL
Temperature
28°C / 82°F
Dewpoint
24°C / 75°F
Heat Index
32°C / 89°F
Humidity
79%
Altimeter
30.07" Hg
Pressure
1018.32 hPa